Time;durP1;ratioP1;P1;durP2;ratioP2;P2;SDS_P1;SDS_P2;PMS_P1;PMS_P2;Temp;Humidity;BMP_temperature;BMP_pressure;BME280_temperature;BME280_humidity;BME280_pressure;Samples;Min_cycle;Max_cycle;Signal;HPM_P1;HPM_P2
2023/01/31 00:03:59;;;;;;;8.87;7.40;;;;;;;2.47;57.24;101124.63;10355379;28;20250;-37
2023/01/31 00:09:02;;;;;;;10.33;7.57;;;;;;;2.21;57.97;101099.03;10355680;28;20654;-37
2023/01/31 00:14:06;;;;;;;7.77;6.97;;;;;;;2.43;57.47;101099.31;10354355;28;20242;-36
2023/01/31 00:19:07;;;;;;;9.70;7.87;;;;;;;1.80;58.71;101040.81;10351111;28;20248;-35
2023/01/31 00:24:13;;;;;;;9.93;8.07;;;;;;;2.40;57.77;101085.47;10351149;28;20238;-36
2023/01/31 00:29:15;;;;;;;9.27;7.97;;;;;;;2.27;57.82;101088.91;10351006;28;20323;-36
2023/01/31 00:34:17;;;;;;;8.83;7.53;;;;;;;1.98;58.11;101077.56;10346635;28;20247;-36
2023/01/31 00:39:19;;;;;;;9.23;7.50;;;;;;;2.58;57.30;101117.78;10352260;28;20240;-36
2023/01/31 00:44:20;;;;;;;10.03;7.90;;;;;;;1.98;58.43;101067.00;10349191;28;20622;-36
2023/01/31 00:49:22;;;;;;;10.70;8.03;;;;;;;2.14;58.43;101059.78;10347930;28;20247;-36
2023/01/31 00:54:24;;;;;;;13.67;8.43;;;;;;;2.23;58.05;101078.63;10343607;28;20238;-37
2023/01/31 00:59:26;;;;;;;12.90;9.17;;;;;;;3.08;56.38;101113.66;10348481;28;20245;-36
2023/01/31 01:04:28;;;;;;;10.33;8.90;;;;;;;1.50;59.12;100982.03;10348517;28;20242;-36
2023/01/31 01:09:30;;;;;;;10.90;8.20;;;;;;;2.82;56.20;101105.63;10343925;28;20581;-36
2023/01/31 01:14:31;;;;;;;10.20;7.93;;;;;;;2.69;56.61;101079.16;10348542;28;20718;-35
2023/01/31 01:19:33;;;;;;;10.30;8.23;;;;;;;2.42;57.22;101068.59;10346468;28;20710;-36
2023/01/31 01:24:35;;;;;;;10.90;8.20;;;;;;;2.47;56.73;101078.88;10342116;28;20238;-36
2023/01/31 01:29:38;;;;;;;11.40;7.83;;;;;;;1.04;59.53;100973.34;10348508;28;20687;-36
2023/01/31 01:34:39;;;;;;;10.37;8.00;;;;;;;1.63;58.70;101016.44;10346467;28;20250;-36
2023/01/31 01:39:42;;;;;;;11.87;9.07;;;;;;;2.21;58.37;101048.84;10341802;28;20240;-36
2023/01/31 01:44:53;;;;;;;13.00;9.17;;;;;;;1.97;57.39;101039.72;10347508;28;20339;-36
2023/01/31 01:50:10;;;;;;;11.03;7.80;;;;;;;1.46;59.03;100999.00;10352823;28;20237;-36
2023/01/31 01:55:24;;;;;;;10.67;8.20;;;;;;;1.20;59.42;100980.31;10343888;28;20231;-36
2023/01/31 02:00:28;;;;;;;12.37;8.97;;;;;;;1.32;59.51;101000.72;10349812;28;20251;-36
2023/01/31 02:05:35;;;;;;;13.70;9.23;;;;;;;1.91;58.62;101032.22;10345403;28;20712;-36
2023/01/31 02:10:40;;;;;;;12.33;9.43;;;;;;;1.17;59.57;100980.50;10345770;28;20719;-36
2023/01/31 02:15:42;;;;;;;13.20;9.67;;;;;;;1.85;58.89;101031.75;10348945;28;20354;-36
2023/01/31 02:21:21;;;;;;;12.50;9.30;;;;;;;1.63;59.54;101009.34;10343547;28;20240;-36
2023/01/31 02:26:54;;;;;;;13.40;10.00;;;;;;;1.73;59.23;101030.75;10356329;28;20232;-36
2023/01/31 02:32:14;;;;;;;14.50;8.70;;;;;;;1.91;59.12;101028.72;10352550;28;20736;-36
2023/01/31 02:37:36;;;;;;;12.33;9.50;;;;;;;1.52;59.55;101015.31;10351959;28;20242;-36
2023/01/31 02:42:53;;;;;;;12.40;9.47;;;;;;;1.03;59.75;100994.53;10356436;28;20714;-36
2023/01/31 02:48:14;;;;;;;14.90;10.30;;;;;;;1.52;59.15;101003.88;10355589;28;20603;-37
2023/01/31 02:53:34;;;;;;;12.53;9.60;;;;;;;0.80;61.19;100959.03;10350150;28;20236;-36
2023/01/31 02:58:39;;;;;;;15.93;10.50;;;;;;;0.89;60.90;100961.09;10352886;28;20232;-36
2023/01/31 03:03:41;;;;;;;13.30;9.63;;;;;;;1.08;60.49;100979.28;10350678;28;20760;-36
2023/01/31 03:08:43;;;;;;;16.93;11.33;;;;;;;0.83;61.67;100958.81;10350368;28;20612;-35
2023/01/31 03:14:09;;;;;;;17.27;11.73;;;;;;;0.96;61.73;100972.13;10349147;28;20237;-36
2023/01/31 03:19:35;;;;;;;16.20;11.80;;;;;;;0.59;61.75;100942.69;10354995;28;20721;-36
2023/01/31 03:24:40;;;;;;;17.63;12.23;;;;;;;1.25;60.20;100972.97;10351632;28;20289;-36
2023/01/31 03:29:43;;;;;;;21.53;13.33;;;;;;;1.92;59.43;101012.78;10369800;28;20240;-36
2023/01/31 03:34:45;;;;;;;17.47;12.77;;;;;;;1.22;59.91;100981.94;10349877;28;20290;-36
2023/01/31 03:40:04;;;;;;;18.50;12.10;;;;;;;1.39;59.65;100983.56;10354603;28;20263;-36
2023/01/31 03:45:10;;;;;;;23.63;13.43;;;;;;;0.60;60.86;100974.22;10349325;28;20475;-36
2023/01/31 03:50:17;;;;;;;19.67;13.70;;;;;;;0.81;60.64;100981.78;10354186;28;20240;-36
2023/01/31 03:55:26;;;;;;;19.27;13.27;;;;;;;2.08;58.02;101056.69;10348213;28;20660;-36
2023/01/31 04:00:28;;;;;;;20.43;14.37;;;;;;;1.40;59.57;101022.16;10350359;28;20244;-35
2023/01/31 04:05:31;;;;;;;20.77;13.97;;;;;;;0.75;60.68;100972.47;10347407;28;20237;-37
2023/01/31 04:10:33;;;;;;;17.50;11.80;;;;;;;0.78;60.83;100979.31;10347836;28;20413;-36
2023/01/31 04:15:35;;;;;;;17.87;13.03;;;;;;;1.56;59.10;101021.25;10349483;28;20247;-36
2023/01/31 04:20:37;;;;;;;19.30;12.93;;;;;;;2.14;57.47;101078.28;10350938;28;20350;-36
2023/01/31 04:25:39;;;;;;;19.13;12.50;;;;;;;1.98;58.11;101059.91;10348325;28;20264;-36
2023/01/31 04:30:40;;;;;;;16.93;12.23;;;;;;;2.09;56.38;101087.44;10350591;28;20299;-37
2023/01/31 04:35:42;;;;;;;16.90;11.60;;;;;;;0.58;60.02;100986.63;10350350;28;20231;-36
2023/01/31 04:40:44;;;;;;;14.30;9.83;;;;;;;0.28;60.29;100982.19;10347189;28;20244;-35
2023/01/31 04:45:45;;;;;;;18.33;12.40;;;;;;;0.96;59.58;101025.66;10350934;28;21801;-35
2023/01/31 04:50:47;;;;;;;17.37;11.07;;;;;;;0.80;60.70;101006.47;10346769;28;20247;-36
2023/01/31 04:55:52;;;;;;;16.33;11.07;;;;;;;1.13;59.44;101013.28;10347679;28;20242;-36
2023/01/31 05:00:54;;;;;;;14.83;10.50;;;;;;;0.31;61.29;100979.38;9500595;28;10000913;-35
2023/01/31 05:05:55;;;;;;;17.57;11.90;;;;;;;0.91;60.58;101014.56;9483108;28;10000537;-37
2023/01/31 05:10:59;;;;;;;14.70;12.03;;;;;;;0.27;59.60;100977.84;10337196;28;20231;-36
2023/01/31 05:16:09;;;;;;;17.50;11.80;;;;;;;1.02;58.82;101003.38;10338859;28;20261;-36
2023/01/31 05:21:11;;;;;;;17.53;11.10;;;;;;;0.08;60.48;100974.59;10339536;28;20245;-36
2023/01/31 05:26:13;;;;;;;15.97;12.53;;;;;;;-0.04;59.81;100959.50;10342738;28;20242;-36
2023/01/31 05:31:15;;;;;;;18.73;11.73;;;;;;;0.68;60.15;100981.69;10347478;28;20321;-36
2023/01/31 05:36:17;;;;;;;19.53;12.53;;;;;;;0.77;61.12;100999.56;10348313;28;20723;-36
2023/01/31 05:41:19;;;;;;;19.73;13.07;;;;;;;0.87;60.90;100986.69;10342232;28;20246;-36
2023/01/31 05:46:22;;;;;;;23.87;13.23;;;;;;;0.60;61.33;100974.22;9474203;28;10000999;-37
2023/01/31 05:51:24;;;;;;;24.10;13.93;;;;;;;1.88;59.67;101050.88;8597665;28;10000767;-36
2023/01/31 05:56:26;;;;;;;19.73;13.33;;;;;;;0.94;60.18;100990.66;10354881;28;20236;-35
2023/01/31 06:01:29;;;;;;;23.37;13.47;;;;;;;1.36;59.99;101025.94;10343696;28;20278;-36
2023/01/31 06:06:31;;;;;;;22.37;12.90;;;;;;;1.35;59.60;101008.41;10372228;28;20247;-36
2023/01/31 06:11:33;;;;;;;28.23;14.57;;;;;;;0.09;61.82;100968.38;10343910;28;20327;-36
2023/01/31 06:16:35;;;;;;;21.43;12.57;;;;;;;0.23;61.72;100960.56;10333795;28;20256;-37
2023/01/31 06:21:37;;;;;;;19.30;13.47;;;;;;;0.78;61.64;101003.03;10345857;28;20231;-37
2023/01/31 06:26:39;;;;;;;21.60;14.30;;;;;;;1.26;60.17;101027.41;10341961;28;20611;-37
2023/01/31 06:31:44;;;;;;;22.37;13.37;;;;;;;0.74;60.32;100989.19;10352060;28;20374;-37
2023/01/31 06:36:46;;;;;;;21.77;13.83;;;;;;;1.05;60.26;101019.88;10342505;28;20783;-37
2023/01/31 06:41:48;;;;;;;21.97;12.93;;;;;;;0.81;60.35;101027.41;10343533;28;20232;-37
2023/01/31 06:46:50;;;;;;;21.87;12.97;;;;;;;0.41;61.30;100997.28;10348615;28;20247;-37
2023/01/31 06:51:51;;;;;;;19.50;12.87;;;;;;;0.55;60.89;101010.50;10341466;28;20748;-37
2023/01/31 06:56:53;;;;;;;19.60;12.13;;;;;;;-0.32;64.23;100987.31;10338302;28;20236;-37
2023/01/31 07:01:55;;;;;;;18.17;12.53;;;;;;;0.62;63.19;101030.28;10346061;28;20237;-37
2023/01/31 07:06:57;;;;;;;16.30;11.30;;;;;;;-0.35;64.77;100998.88;10345578;28;20234;-37
2023/01/31 07:12:01;;;;;;;21.17;12.53;;;;;;;-0.06;64.56;101002.53;10347821;28;20227;-37
2023/01/31 07:17:02;;;;;;;18.47;12.27;;;;;;;-0.30;62.87;100988.09;10350399;28;20317;-37
2023/01/31 07:22:04;;;;;;;18.17;12.50;;;;;;;-0.07;63.48;100992.09;10353533;28;20227;-37
2023/01/31 07:27:06;;;;;;;18.43;12.20;;;;;;;0.18;62.89;100994.19;9495499;28;10000406;-37
2023/01/31 07:32:08;;;;;;;17.93;12.23;;;;;;;0.19;63.10;101002.94;10355670;28;20662;-37
2023/01/31 07:37:09;;;;;;;17.20;12.13;;;;;;;0.42;62.22;101010.38;10351329;28;20245;-37
2023/01/31 07:42:11;;;;;;;18.30;12.60;;;;;;;0.61;61.97;101017.19;10353747;28;20269;-37
2023/01/31 07:47:13;;;;;;;20.77;11.83;;;;;;;-0.17;63.14;100994.38;10347638;28;20816;-37
2023/01/31 07:52:15;;;;;;;19.10;13.47;;;;;;;0.51;61.15;101014.25;10352159;28;20223;-37
2023/01/31 07:57:17;;;;;;;15.30;9.63;;;;;;;-0.70;63.73;100971.81;10350209;28;20240;-37
2023/01/31 08:07:38;;;;;;;22.03;14.77;;;;;;;0.87;60.40;101034.13;10338635;28;20247;-37
2023/01/31 08:12:40;;;;;;;27.40;14.93;;;;;;;1.13;59.47;101044.91;10341673;28;20247;-37
2023/01/31 08:17:42;;;;;;;19.33;14.43;;;;;;;1.01;60.20;101036.78;10350413;28;20423;-37
2023/01/31 08:22:44;;;;;;;22.50;13.87;;;;;;;1.36;59.75;101056.75;10341835;28;20231;-37
2023/01/31 08:27:46;;;;;;;20.63;14.00;;;;;;;0.68;59.69;101019.41;10346094;28;20246;-37
2023/01/31 11:06:25;;;;;;;16.53;12.07;;;;;;;-1.08;66.83;101014.09;10562032;27;20309;-65
2023/01/31 11:11:28;;;;;;;15.63;10.37;;;;;;;-0.81;66.44;100994.25;10552012;28;20665;-67
2023/01/31 11:16:37;;;;;;;14.83;12.30;;;;;;;-0.06;65.27;100988.53;10524013;28;20741;-65
2023/01/31 11:21:39;;;;;;;18.47;13.03;;;;;;;-0.28;64.25;100952.88;10503059;28;20242;-67
2023/01/31 11:26:50;;;;;;;16.30;13.03;;;;;;;-1.39;66.64;100968.38;10502943;28;20279;-68
2023/01/31 11:31:53;;;;;;;18.67;11.80;;;;;;;-0.13;64.96;100953.81;10490241;28;20230;-66
2023/01/31 11:37:06;;;;;;;19.80;12.63;;;;;;;0.59;63.02;100948.78;10495482;28;20227;-65
2023/01/31 11:42:13;;;;;;;17.33;11.07;;;;;;;-0.32;64.25;100925.03;10496112;28;20226;-65
2023/01/31 11:47:15;;;;;;;16.03;12.43;;;;;;;0.29;63.71;100939.13;10499948;28;20233;-66
2023/01/31 11:52:26;;;;;;;12.97;10.47;;;;;;;-1.03;66.11;100910.44;10491806;28;20226;-67
2023/01/31 11:57:34;;;;;;;12.60;8.77;;;;;;;-0.96;66.22;100894.34;10479782;28;20239;-68
2023/01/31 12:02:40;;;;;;;12.93;10.47;;;;;;;-0.38;66.75;100862.28;10522793;27;20268;-64
2023/01/31 12:07:46;;;;;;;12.87;9.07;;;;;;;0.52;64.20;100865.81;10504345;28;20247;-66
2023/01/31 12:12:50;;;;;;;16.20;9.93;;;;;;;0.54;65.06;100863.94;10506372;28;20222;-65
2023/01/31 12:17:53;;;;;;;9.60;6.30;;;;;;;-1.53;67.49;100840.44;10497602;28;20230;-64
2023/01/31 12:23:04;;;;;;;15.47;8.00;;;;;;;0.04;63.77;100842.31;10515793;28;20524;-66
2023/01/31 12:28:14;;;;;;;11.67;8.57;;;;;;;0.65;62.68;100865.94;10513071;28;20734;-67
2023/01/31 12:33:40;;;;;;;14.00;9.13;;;;;;;0.81;61.87;100895.66;10511643;28;20230;-66
2023/01/31 12:38:50;;;;;;;15.43;8.87;;;;;;;-0.41;63.17;100828.25;10514927;28;20789;-67
2023/01/31 12:44:04;;;;;;;10.60;8.03;;;;;;;0.63;62.43;100867.78;10493832;28;20644;-67
2023/01/31 12:49:27;;;;;;;12.27;8.63;;;;;;;-0.07;62.50;100827.13;10510296;28;20233;-65
2023/01/31 12:54:50;;;;;;;13.67;8.97;;;;;;;0.31;63.13;100807.41;10510258;28;20230;-66
2023/01/31 13:00:10;;;;;;;12.67;7.50;;;;;;;0.24;62.80;100772.69;10506299;28;20643;-66
2023/01/31 13:05:30;;;;;;;12.23;8.13;;;;;;;0.94;61.22;100824.59;10496546;28;20300;-65
2023/01/31 13:10:44;;;;;;;11.63;6.40;;;;;;;-0.16;63.15;100759.28;10512097;28;20241;-64
2023/01/31 13:16:11;;;;;;;9.93;7.43;;;;;;;0.85;62.03;100822.56;10505804;28;20234;-65
2023/01/31 13:21:18;;;;;;;12.77;7.47;;;;;;;1.55;60.19;100882.34;10510067;28;20233;-65
2023/01/31 13:26:33;;;;;;;9.63;6.93;;;;;;;0.93;61.30;100836.06;10493675;28;20241;-66
2023/01/31 13:31:46;;;;;;;11.47;7.47;;;;;;;1.17;60.82;100854.78;10501486;28;20234;-66
2023/01/31 13:36:54;;;;;;;9.77;6.70;;;;;;;0.54;61.08;100819.16;10506861;28;20668;-67
2023/01/31 13:41:56;;;;;;;9.73;6.80;;;;;;;1.11;61.29;100860.44;10507641;28;20230;-65
2023/01/31 13:47:07;;;;;;;9.97;6.87;;;;;;;1.76;59.99;100904.72;10505607;28;20231;-65
2023/01/31 13:52:22;;;;;;;8.40;6.17;;;;;;;0.40;62.17;100793.66;10510110;28;20237;-64
2023/01/31 13:57:28;;;;;;;8.47;6.00;;;;;;;1.84;59.82;100885.72;10504427;28;20247;-65
2023/01/31 14:02:30;;;;;;;9.97;6.67;;;;;;;1.52;60.46;100866.69;10514779;28;20288;-66
2023/01/31 14:07:32;;;;;;;11.57;7.27;;;;;;;1.51;60.94;100871.13;10504040;28;20257;-67
2023/01/31 14:12:36;;;;;;;9.47;7.07;;;;;;;2.02;59.54;100888.94;10512050;28;20237;-66
2023/01/31 14:17:56;;;;;;;10.90;6.60;;;;;;;2.21;59.13;100898.28;10505846;28;20227;-65
2023/01/31 14:23:20;;;;;;;7.00;6.30;;;;;;;2.18;59.66;100872.94;10502024;28;20232;-65
2023/01/31 14:28:22;;;;;;;10.80;6.97;;;;;;;1.52;60.50;100824.50;10508970;28;20728;-66
2023/01/31 14:33:27;;;;;;;16.93;7.03;;;;;;;1.70;59.29;100870.78;10506050;28;20245;-64
2023/01/31 14:38:47;;;;;;;9.07;6.67;;;;;;;2.12;58.97;100911.16;10505292;28;20732;-67
2023/01/31 14:44:05;;;;;;;9.33;6.90;;;;;;;2.32;58.44;100923.03;10514901;22;20231;-38
2023/01/31 14:49:28;;;;;;;10.37;7.27;;;;;;;2.11;59.18;100917.41;10428871;28;20539;-38
2023/01/31 14:54:48;;;;;;;8.27;6.73;;;;;;;2.35;58.74;100937.84;10437644;28;20232;-38
2023/01/31 15:00:14;;;;;;;10.13;6.30;;;;;;;2.22;58.99;100929.03;10436448;28;20919;-39
2023/01/31 15:05:22;;;;;;;9.33;6.40;;;;;;;2.53;57.96;100933.97;10430692;28;20239;-38
2023/01/31 15:10:52;;;;;;;8.17;6.40;;;;;;;2.36;58.67;100918.38;10435151;28;20235;-38
2023/01/31 15:15:54;;;;;;;8.33;5.77;;;;;;;1.89;59.25;100888.06;10436515;28;20622;-38
2023/01/31 15:21:00;;;;;;;11.13;6.97;;;;;;;2.61;58.54;100936.06;10431280;28;20776;-38
2023/01/31 15:26:03;;;;;;;9.87;6.90;;;;;;;2.76;57.61;100965.91;10453642;28;20238;-39
2023/01/31 15:31:17;;;;;;;8.60;7.10;;;;;;;2.93;58.00;100950.72;10432662;28;20323;-39
2023/01/31 15:36:36;;;;;;;12.17;7.20;;;;;;;2.95;57.68;100970.81;10436214;28;20346;-39
2023/01/31 15:41:40;;;;;;;15.43;10.63;;;;;;;3.17;57.26;100979.91;10429779;28;20381;-38
2023/01/31 15:46:45;;;;;;;13.37;7.50;;;;;;;2.47;58.11;100974.00;9507671;28;10000139;-38
2023/01/31 15:52:11;;;;;;;10.57;7.17;;;;;;;2.49;57.99;100968.63;10396463;28;20263;-38
2023/01/31 15:57:16;;;;;;;7.87;6.17;;;;;;;2.90;58.25;100967.59;10400356;28;20232;-38
2023/01/31 16:02:26;;;;;;;10.93;6.17;;;;;;;1.37;60.03;100855.34;10392334;28;20236;-39
2023/01/31 16:07:30;;;;;;;9.37;6.93;;;;;;;2.38;59.21;100915.66;10399055;28;20882;-39
2023/01/31 16:12:39;;;;;;;10.73;6.30;;;;;;;2.01;59.09;100889.88;10404046;28;20232;-38
2023/01/31 16:17:41;;;;;;;7.97;7.17;;;;;;;2.56;58.47;100932.06;10400333;28;20241;-38
2023/01/31 16:22:55;;;;;;;10.33;7.33;;;;;;;3.54;56.68;100995.84;10403647;28;20232;-39
2023/01/31 16:28:01;;;;;;;9.27;7.00;;;;;;;3.30;57.10;100990.50;10394486;28;20266;-38
2023/01/31 16:33:02;;;;;;;10.60;7.17;;;;;;;3.03;57.53;100989.66;10395386;28;20242;-37
2023/01/31 16:38:17;;;;;;;8.03;6.30;;;;;;;2.91;57.98;100966.69;10391588;28;20228;-39
2023/01/31 16:43:27;;;;;;;9.47;6.50;;;;;;;3.31;56.88;100992.16;10401337;28;20241;-39
2023/01/31 16:48:35;;;;;;;7.57;6.77;;;;;;;3.04;57.83;100951.69;10403978;28;20323;-39
2023/01/31 16:53:38;;;;;;;10.07;6.67;;;;;;;3.11;57.01;100967.97;10399541;28;20228;-39
2023/01/31 16:58:46;;;;;;;7.77;6.03;;;;;;;2.67;57.66;100940.97;10398213;28;20240;-39
2023/01/31 17:04:21;;;;;;;12.10;6.20;;;;;;;3.39;56.39;100989.84;10400832;28;20243;-38
2023/01/31 17:09:22;;;;;;;11.93;7.40;;;;;;;3.12;56.34;100974.09;10400189;28;20236;-39
2023/01/31 17:14:24;;;;;;;62.90;35.77;;;;;;;2.97;57.10;100962.78;10408136;28;20233;-39
2023/01/31 17:19:26;;;;;;;10.73;7.43;;;;;;;3.21;56.69;100982.25;10401995;28;20232;-39
2023/01/31 17:24:27;;;;;;;12.37;7.60;;;;;;;2.83;57.46;100964.53;10397144;28;20244;-38
2023/01/31 17:29:29;;;;;;;9.73;6.57;;;;;;;3.07;57.09;100963.84;10396451;28;20233;-38
2023/01/31 17:34:31;;;;;;;11.77;7.60;;;;;;;3.52;55.89;100998.59;10404046;28;20242;-39
2023/01/31 17:39:33;;;;;;;9.07;6.90;;;;;;;3.57;56.06;100975.31;10393133;28;20242;-39
2023/01/31 17:44:35;;;;;;;10.70;7.63;;;;;;;2.99;56.86;100950.28;10396335;28;20239;-38
2023/01/31 17:49:37;;;;;;;10.43;6.47;;;;;;;2.75;57.39;100931.66;10399368;28;20233;-39
2023/01/31 17:54:39;;;;;;;7.93;6.80;;;;;;;3.16;56.88;100949.97;10399881;28;20238;-38
2023/01/31 17:59:40;;;;;;;9.50;6.70;;;;;;;3.31;56.72;100956.00;10399924;28;20251;-38
2023/01/31 18:04:42;;;;;;;11.47;6.43;;;;;;;3.09;56.54;100959.28;10391764;28;20237;-38
2023/01/31 18:09:44;;;;;;;9.60;6.70;;;;;;;3.30;56.22;100954.28;10394173;28;20233;-39
2023/01/31 18:14:46;;;;;;;9.00;7.30;;;;;;;2.86;56.56;100947.63;10403406;28;20715;-38
2023/01/31 18:19:48;;;;;;;11.60;7.90;;;;;;;2.47;57.55;100886.81;10395206;28;20233;-39
2023/01/31 18:24:49;;;;;;;11.17;8.60;;;;;;;3.58;56.09;100963.78;10389733;28;20262;-38
2023/01/31 18:29:51;;;;;;;10.50;7.40;;;;;;;3.72;55.58;100985.78;10392757;28;20578;-38
2023/01/31 18:34:53;;;;;;;9.30;6.83;;;;;;;3.20;56.47;100953.25;10389348;28;20244;-38
2023/01/31 18:39:54;;;;;;;11.53;7.77;;;;;;;3.72;55.70;100964.59;10384796;28;20239;-39
2023/01/31 18:44:56;;;;;;;8.50;6.30;;;;;;;3.20;56.28;100959.38;10385217;28;20247;-39
2023/01/31 18:49:58;;;;;;;12.90;6.90;;;;;;;3.45;56.22;100957.66;10392295;28;20246;-37
2023/01/31 18:54:59;;;;;;;11.20;5.93;;;;;;;2.36;57.82;100873.47;10396436;28;20232;-37
2023/01/31 19:00:03;;;;;;;8.73;6.60;;;;;;;2.89;56.57;100935.03;10395360;28;20235;-38
2023/01/31 19:05:07;;;;;;;8.97;6.60;;;;;;;3.21;57.06;100918.75;10392632;28;20888;-37
2023/01/31 19:10:10;;;;;;;9.03;7.00;;;;;;;3.71;55.94;100968.19;10397042;28;20646;-37
2023/01/31 19:15:12;;;;;;;9.90;6.67;;;;;;;3.09;58.19;100930.19;10408442;28;20238;-37
2023/01/31 19:20:14;;;;;;;10.23;6.17;;;;;;;2.52;58.88;100878.59;10443104;28;20258;-37
2023/01/31 19:25:15;;;;;;;9.23;7.10;;;;;;;3.11;58.12;100917.72;10431958;28;20228;-37
2023/01/31 19:30:17;;;;;;;8.03;6.67;;;;;;;3.36;58.13;100932.72;10419889;28;20228;-37
2023/01/31 19:35:19;;;;;;;9.80;5.67;;;;;;;1.87;59.60;100838.00;10399357;28;20240;-38
2023/01/31 19:40:21;;;;;;;7.13;6.03;;;;;;;2.84;58.79;100908.06;10405466;28;20642;-38
2023/01/31 19:45:23;;;;;;;9.63;6.17;;;;;;;3.27;59.45;100897.13;9541087;28;10000603;-37
2023/01/31 19:50:25;;;;;;;12.80;6.77;;;;;;;4.20;57.09;100935.44;10451336;28;20224;-37
2023/01/31 19:55:27;;;;;;;7.73;5.87;;;;;;;3.18;58.80;100887.22;10441901;28;20254;-38
2023/01/31 20:00:29;;;;;;;7.30;6.27;;;;;;;3.51;58.44;100901.63;10451907;28;20238;-37
2023/01/31 20:05:32;;;;;;;11.63;6.87;;;;;;;3.52;58.90;100895.38;10455004;28;20886;-37
2023/01/31 20:10:34;;;;;;;10.27;5.80;;;;;;;3.18;59.35;100876.66;10448099;28;20625;-38
2023/01/31 20:15:36;;;;;;;9.30;6.27;;;;;;;2.67;60.37;100832.59;10448075;28;20601;-38
2023/01/31 20:20:37;;;;;;;7.80;6.57;;;;;;;3.45;59.79;100887.03;10447045;28;20629;-38
2023/01/31 20:25:39;;;;;;;8.60;6.77;;;;;;;3.55;58.98;100904.94;10446783;28;20250;-38
2023/01/31 20:30:41;;;;;;;11.07;6.80;;;;;;;3.50;58.90;100899.97;10426442;28;20236;-38
2023/01/31 20:35:44;;;;;;;8.67;6.33;;;;;;;3.34;59.66;100889.59;10409486;28;20791;-38
2023/01/31 20:40:53;;;;;;;9.53;5.77;;;;;;;2.39;62.41;100807.22;10407254;28;20275;-38
2023/01/31 20:46:13;;;;;;;10.73;6.57;;;;;;;3.40;60.21;100885.69;10427653;28;20231;-37
2023/01/31 20:51:15;;;;;;;8.53;6.50;;;;;;;3.52;61.65;100858.34;10418028;28;20239;-37
2023/01/31 20:56:17;;;;;;;7.70;6.03;;;;;;;2.78;62.50;100808.03;10410844;28;20326;-37
2023/01/31 21:01:19;;;;;;;8.43;5.60;;;;;;;3.43;60.92;100837.84;10404056;28;20247;-37
2023/01/31 21:06:20;;;;;;;7.07;6.17;;;;;;;3.15;61.68;100813.38;10410114;28;20295;-37
2023/01/31 21:11:22;;;;;;;7.03;5.77;;;;;;;2.42;64.08;100775.31;10397291;28;20234;-37
2023/01/31 21:16:24;;;;;;;9.60;5.77;;;;;;;3.58;61.16;100828.78;10421029;28;21017;-37
2023/01/31 21:21:26;;;;;;;8.43;6.10;;;;;;;3.24;61.96;100794.22;10451997;28;20612;-37
2023/01/31 21:26:27;;;;;;;7.57;6.70;;;;;;;3.62;60.66;100832.88;10435593;28;20232;-37
2023/01/31 21:31:30;;;;;;;8.43;6.03;;;;;;;3.50;59.92;100851.47;10395778;28;20998;-37
2023/01/31 21:36:34;;;;;;;9.47;7.77;;;;;;;4.57;58.07;100893.78;10434769;28;20228;-37
2023/01/31 21:46:58;;;;;;;7.63;6.30;;;;;;;3.33;61.59;100813.00;10404647;28;20286;-37
2023/01/31 21:52:00;;;;;;;7.90;5.40;;;;;;;2.39;62.08;100741.19;10407731;28;21041;-37
2023/01/31 21:57:02;;;;;;;7.90;6.30;;;;;;;4.04;59.79;100853.63;10437362;28;20224;-37
2023/01/31 22:02:04;;;;;;;10.50;6.30;;;;;;;3.88;58.58;100863.69;10458183;28;20235;-37
2023/01/31 22:07:07;;;;;;;7.00;5.43;;;;;;;3.47;60.22;100834.84;10454106;28;20235;-37
2023/01/31 22:12:09;;;;;;;9.37;5.60;;;;;;;3.56;60.14;100828.03;10415629;28;20229;-37
2023/01/31 22:17:10;;;;;;;8.73;6.73;;;;;;;3.17;61.37;100807.97;10430001;28;20667;-37
2023/01/31 22:22:12;;;;;;;8.00;5.87;;;;;;;4.06;59.96;100841.13;10439695;28;20247;-37
2023/01/31 22:27:14;;;;;;;6.83;5.70;;;;;;;3.86;60.32;100842.59;10439305;28;20230;-37
2023/01/31 22:32:15;;;;;;;7.23;5.37;;;;;;;3.16;61.82;100804.50;10439644;28;20238;-37
2023/01/31 22:37:17;;;;;;;8.30;6.90;;;;;;;3.58;60.88;100818.19;10439901;28;20228;-37
2023/01/31 22:42:19;;;;;;;10.47;5.67;;;;;;;3.07;62.22;100784.84;10438812;28;20775;-37
2023/01/31 22:47:20;;;;;;;7.23;6.13;;;;;;;3.85;61.10;100822.41;10436925;28;20231;-37
2023/01/31 22:52:22;;;;;;;7.90;5.87;;;;;;;3.20;62.76;100790.09;10437566;28;20224;-37
2023/01/31 22:57:26;;;;;;;6.40;4.60;;;;;;;1.51;65.16;100680.34;10437570;28;20238;-37
2023/01/31 23:02:28;;;;;;;6.40;5.40;;;;;;;3.73;60.97;100802.13;10437304;28;20232;-37
2023/01/31 23:07:29;;;;;;;9.57;5.93;;;;;;;3.09;62.70;100761.78;10437644;28;20232;-37
2023/01/31 23:12:31;;;;;;;9.60;5.50;;;;;;;2.97;62.49;100746.78;10438718;28;20232;-37
2023/01/31 23:17:36;;;;;;;8.03;5.80;;;;;;;2.26;64.10;100692.81;10436622;28;20586;-37
2023/01/31 23:22:38;;;;;;;7.53;5.90;;;;;;;1.92;64.95;100664.31;10436211;28;20772;-37
2023/01/31 23:27:41;;;;;;;10.33;6.43;;;;;;;2.75;63.65;100702.50;10436388;28;20270;-37
2023/01/31 23:32:43;;;;;;;11.73;8.47;;;;;;;3.89;60.81;100767.41;10436246;28;20239;-37
2023/01/31 23:37:44;;;;;;;8.77;6.90;;;;;;;3.32;61.21;100732.78;10434495;28;20231;-37
2023/01/31 23:42:46;;;;;;;9.07;6.73;;;;;;;2.12;63.72;100670.84;10437471;28;20247;-37
2023/01/31 23:47:49;;;;;;;8.47;7.57;;;;;;;3.59;60.92;100732.53;10437886;28;20603;-37
2023/01/31 23:52:51;;;;;;;11.93;7.13;;;;;;;3.37;61.43;100720.06;10437152;28;20981;-37
2023/01/31 23:57:53;;;;;;;8.97;6.80;;;;;;;3.30;61.47;100725.94;10436738;28;20244;-37
